sensor_id;sensor_type;location;lat;lon;timestamp;P1;durP1;ratioP1;P2;durP2;ratioP2
65715;SDS011;63484;52.054;8.518;2023-04-03T00:03:09;2.57;;;0.97;;
65715;SDS011;63484;52.054;8.518;2023-04-03T00:08:10;3.70;;;0.90;;
65715;SDS011;63484;52.054;8.518;2023-04-03T00:13:12;3.40;;;0.97;;
65715;SDS011;63484;52.054;8.518;2023-04-03T00:18:16;2.03;;;0.80;;
65715;SDS011;63484;52.054;8.518;2023-04-03T00:23:17;2.23;;;0.70;;
65715;SDS011;63484;52.054;8.518;2023-04-03T00:33:24;3.73;;;1.03;;
65715;SDS011;63484;52.054;8.518;2023-04-03T00:38:26;1.83;;;0.90;;
65715;SDS011;63484;52.054;8.518;2023-04-03T00:43:28;1.77;;;0.80;;
65715;SDS011;63484;52.054;8.518;2023-04-03T00:48:32;2.37;;;0.67;;
65715;SDS011;63484;52.054;8.518;2023-04-03T00:53:37;4.23;;;0.87;;
65715;SDS011;63484;52.054;8.518;2023-04-03T00:58:43;2.93;;;0.70;;
65715;SDS011;63484;52.054;8.518;2023-04-03T01:03:49;3.40;;;1.13;;
65715;SDS011;63484;52.054;8.518;2023-04-03T01:13:56;2.13;;;0.60;;
65715;SDS011;63484;52.054;8.518;2023-04-03T01:19:01;3.00;;;1.40;;
65715;SDS011;63484;52.054;8.518;2023-04-03T01:24:11;7.10;;;1.00;;
65715;SDS011;63484;52.054;8.518;2023-04-03T01:29:21;3.28;;;0.90;;
65715;SDS011;63484;52.054;8.518;2023-04-03T01:34:24;5.50;;;1.03;;
65715;SDS011;63484;52.054;8.518;2023-04-03T01:39:27;5.00;;;0.70;;
65715;SDS011;63484;52.054;8.518;2023-04-03T01:44:29;6.07;;;1.10;;
65715;SDS011;63484;52.054;8.518;2023-04-03T01:49:33;1.50;;;0.97;;
65715;SDS011;63484;52.054;8.518;2023-04-03T01:54:34;5.65;;;0.75;;
65715;SDS011;63484;52.054;8.518;2023-04-03T01:59:36;4.47;;;0.90;;
65715;SDS011;63484;52.054;8.518;2023-04-03T02:04:39;3.33;;;1.10;;
65715;SDS011;63484;52.054;8.518;2023-04-03T02:09:41;2.92;;;0.85;;
65715;SDS011;63484;52.054;8.518;2023-04-03T02:14:43;2.50;;;0.87;;
65715;SDS011;63484;52.054;8.518;2023-04-03T02:19:47;2.50;;;0.90;;
65715;SDS011;63484;52.054;8.518;2023-04-03T02:24:49;3.70;;;1.40;;
65715;SDS011;63484;52.054;8.518;2023-04-03T02:29:51;4.50;;;0.90;;
65715;SDS011;63484;52.054;8.518;2023-04-03T02:34:55;6.90;;;0.90;;
65715;SDS011;63484;52.054;8.518;2023-04-03T02:39:57;4.63;;;0.80;;
65715;SDS011;63484;52.054;8.518;2023-04-03T02:44:59;7.20;;;1.10;;
65715;SDS011;63484;52.054;8.518;2023-04-03T02:50:03;6.00;;;0.93;;
65715;SDS011;63484;52.054;8.518;2023-04-03T02:55:06;3.80;;;0.87;;
65715;SDS011;63484;52.054;8.518;2023-04-03T03:00:09;3.83;;;1.03;;
65715;SDS011;63484;52.054;8.518;2023-04-03T03:05:12;7.03;;;0.83;;
65715;SDS011;63484;52.054;8.518;2023-04-03T03:10:14;4.43;;;0.75;;
65715;SDS011;63484;52.054;8.518;2023-04-03T03:15:16;4.20;;;0.87;;
65715;SDS011;63484;52.054;8.518;2023-04-03T03:20:20;2.50;;;0.80;;
65715;SDS011;63484;52.054;8.518;2023-04-03T03:25:22;3.13;;;0.90;;
65715;SDS011;63484;52.054;8.518;2023-04-03T03:30:24;5.07;;;1.30;;
65715;SDS011;63484;52.054;8.518;2023-04-03T03:35:28;4.40;;;1.00;;
65715;SDS011;63484;52.054;8.518;2023-04-03T03:40:29;2.33;;;0.80;;
65715;SDS011;63484;52.054;8.518;2023-04-03T03:45:33;4.17;;;1.07;;
65715;SDS011;63484;52.054;8.518;2023-04-03T03:50:39;8.33;;;1.00;;
65715;SDS011;63484;52.054;8.518;2023-04-03T03:55:40;4.32;;;1.30;;
65715;SDS011;63484;52.054;8.518;2023-04-03T04:00:43;3.77;;;1.00;;
65715;SDS011;63484;52.054;8.518;2023-04-03T04:05:47;4.97;;;1.20;;
65715;SDS011;63484;52.054;8.518;2023-04-03T04:15:52;5.40;;;1.10;;
65715;SDS011;63484;52.054;8.518;2023-04-03T04:20:55;2.77;;;1.30;;
65715;SDS011;63484;52.054;8.518;2023-04-03T04:25:57;4.72;;;1.30;;
65715;SDS011;63484;52.054;8.518;2023-04-03T04:31:01;3.70;;;1.52;;
65715;SDS011;63484;52.054;8.518;2023-04-03T04:36:07;7.43;;;1.30;;
65715;SDS011;63484;52.054;8.518;2023-04-03T04:41:11;9.20;;;1.60;;
65715;SDS011;63484;52.054;8.518;2023-04-03T04:46:14;4.97;;;1.40;;
65715;SDS011;63484;52.054;8.518;2023-04-03T04:51:23;8.17;;;1.60;;
65715;SDS011;63484;52.054;8.518;2023-04-03T04:56:24;7.05;;;1.40;;
65715;SDS011;63484;52.054;8.518;2023-04-03T05:01:30;5.63;;;1.17;;
65715;SDS011;63484;52.054;8.518;2023-04-03T05:06:43;8.37;;;1.50;;
65715;SDS011;63484;52.054;8.518;2023-04-03T05:11:49;4.57;;;1.30;;
65715;SDS011;63484;52.054;8.518;2023-04-03T05:16:56;3.83;;;1.27;;
65715;SDS011;63484;52.054;8.518;2023-04-03T05:22:03;6.17;;;1.30;;
65715;SDS011;63484;52.054;8.518;2023-04-03T05:27:05;4.65;;;1.67;;
65715;SDS011;63484;52.054;8.518;2023-04-03T05:32:10;7.47;;;1.53;;
65715;SDS011;63484;52.054;8.518;2023-04-03T05:37:13;3.53;;;1.07;;
65715;SDS011;63484;52.054;8.518;2023-04-03T05:42:15;5.75;;;1.70;;
65715;SDS011;63484;52.054;8.518;2023-04-03T05:47:17;6.93;;;1.50;;
65715;SDS011;63484;52.054;8.518;2023-04-03T05:52:25;6.47;;;1.13;;
65715;SDS011;63484;52.054;8.518;2023-04-03T05:57:31;5.07;;;1.27;;
65715;SDS011;63484;52.054;8.518;2023-04-03T06:02:35;7.10;;;1.48;;
65715;SDS011;63484;52.054;8.518;2023-04-03T06:07:38;6.35;;;1.58;;
65715;SDS011;63484;52.054;8.518;2023-04-03T06:17:42;4.40;;;1.70;;
65715;SDS011;63484;52.054;8.518;2023-04-03T06:22:45;6.88;;;1.40;;
65715;SDS011;63484;52.054;8.518;2023-04-03T06:27:47;3.20;;;1.07;;
65715;SDS011;63484;52.054;8.518;2023-04-03T06:32:49;7.70;;;1.40;;
65715;SDS011;63484;52.054;8.518;2023-04-03T06:37:52;6.85;;;1.67;;
65715;SDS011;63484;52.054;8.518;2023-04-03T06:42:54;3.67;;;1.30;;
65715;SDS011;63484;52.054;8.518;2023-04-03T06:47:56;6.40;;;1.60;;
65715;SDS011;63484;52.054;8.518;2023-04-03T06:52:59;3.85;;;1.10;;
65715;SDS011;63484;52.054;8.518;2023-04-03T06:58:01;4.20;;;1.00;;
65715;SDS011;63484;52.054;8.518;2023-04-03T07:03:03;2.63;;;1.15;;
65715;SDS011;63484;52.054;8.518;2023-04-03T07:08:09;6.00;;;1.33;;
65715;SDS011;63484;52.054;8.518;2023-04-03T07:13:10;3.50;;;1.10;;
65715;SDS011;63484;52.054;8.518;2023-04-03T07:23:18;4.18;;;1.00;;
65715;SDS011;63484;52.054;8.518;2023-04-03T07:28:20;5.38;;;1.50;;
65715;SDS011;63484;52.054;8.518;2023-04-03T07:33:23;4.82;;;1.38;;
65715;SDS011;63484;52.054;8.518;2023-04-03T07:38:26;2.20;;;0.98;;
65715;SDS011;63484;52.054;8.518;2023-04-03T07:43:28;3.47;;;1.50;;
65715;SDS011;63484;52.054;8.518;2023-04-03T07:48:30;3.85;;;0.80;;
65715;SDS011;63484;52.054;8.518;2023-04-03T07:53:33;2.20;;;0.80;;
65715;SDS011;63484;52.054;8.518;2023-04-03T07:58:35;2.22;;;0.85;;
65715;SDS011;63484;52.054;8.518;2023-04-03T08:03:37;1.58;;;0.70;;
65715;SDS011;63484;52.054;8.518;2023-04-03T08:08:41;6.40;;;0.88;;
65715;SDS011;63484;52.054;8.518;2023-04-03T08:13:42;3.92;;;0.90;;
65715;SDS011;63484;52.054;8.518;2023-04-03T08:18:44;2.53;;;0.80;;
65715;SDS011;63484;52.054;8.518;2023-04-03T08:23:48;4.00;;;0.82;;
65715;SDS011;63484;52.054;8.518;2023-04-03T08:28:51;2.28;;;1.05;;
65715;SDS011;63484;52.054;8.518;2023-04-03T08:33:53;2.60;;;0.80;;
65715;SDS011;63484;52.054;8.518;2023-04-03T08:38:56;3.38;;;0.98;;
65715;SDS011;63484;52.054;8.518;2023-04-03T08:44:01;5.40;;;0.90;;
65715;SDS011;63484;52.054;8.518;2023-04-03T08:49:18;2.58;;;0.70;;
65715;SDS011;63484;52.054;8.518;2023-04-03T08:54:27;1.85;;;0.70;;
65715;SDS011;63484;52.054;8.518;2023-04-03T08:59:32;1.42;;;0.52;;
65715;SDS011;63484;52.054;8.518;2023-04-03T09:04:37;4.10;;;0.70;;
65715;SDS011;63484;52.054;8.518;2023-04-03T09:09:41;4.43;;;0.88;;
65715;SDS011;63484;52.054;8.518;2023-04-03T09:14:45;2.63;;;0.70;;
65715;SDS011;63484;52.054;8.518;2023-04-03T09:19:56;1.88;;;0.63;;
65715;SDS011;63484;52.054;8.518;2023-04-03T09:25:07;2.53;;;0.70;;
65715;SDS011;63484;52.054;8.518;2023-04-03T09:30:14;3.25;;;0.57;;
65715;SDS011;63484;52.054;8.518;2023-04-03T09:35:22;4.65;;;0.75;;
65715;SDS011;63484;52.054;8.518;2023-04-03T09:40:32;2.20;;;0.60;;
65715;SDS011;63484;52.054;8.518;2023-04-03T09:45:36;4.78;;;0.80;;
65715;SDS011;63484;52.054;8.518;2023-04-03T09:50:38;3.90;;;0.98;;
65715;SDS011;63484;52.054;8.518;2023-04-03T09:55:56;2.67;;;0.70;;
65715;SDS011;63484;52.054;8.518;2023-04-03T10:01:00;3.38;;;0.85;;
65715;SDS011;63484;52.054;8.518;2023-04-03T10:06:03;1.40;;;0.47;;
65715;SDS011;63484;52.054;8.518;2023-04-03T10:11:26;7.47;;;0.95;;
65715;SDS011;63484;52.054;8.518;2023-04-03T10:16:35;2.22;;;0.50;;
65715;SDS011;63484;52.054;8.518;2023-04-03T10:21:44;1.35;;;0.50;;
65715;SDS011;63484;52.054;8.518;2023-04-03T10:26:52;1.98;;;0.45;;
65715;SDS011;63484;52.054;8.518;2023-04-03T10:32:01;1.08;;;0.50;;
65715;SDS011;63484;52.054;8.518;2023-04-03T10:37:14;1.48;;;0.60;;
65715;SDS011;63484;52.054;8.518;2023-04-03T10:42:26;1.30;;;0.50;;
65715;SDS011;63484;52.054;8.518;2023-04-03T10:47:37;1.98;;;0.40;;
65715;SDS011;63484;52.054;8.518;2023-04-03T10:52:46;5.82;;;0.80;;
65715;SDS011;63484;52.054;8.518;2023-04-03T10:57:54;2.35;;;0.52;;
65715;SDS011;63484;52.054;8.518;2023-04-03T11:03:00;5.43;;;0.60;;
65715;SDS011;63484;52.054;8.518;2023-04-03T11:08:09;1.60;;;0.60;;
65715;SDS011;63484;52.054;8.518;2023-04-03T11:13:17;3.20;;;0.60;;
65715;SDS011;63484;52.054;8.518;2023-04-03T11:18:27;3.15;;;0.60;;
65715;SDS011;63484;52.054;8.518;2023-04-03T11:23:36;3.35;;;0.75;;
65715;SDS011;63484;52.054;8.518;2023-04-03T11:28:41;3.17;;;0.63;;
65715;SDS011;63484;52.054;8.518;2023-04-03T11:33:44;1.05;;;0.50;;
65715;SDS011;63484;52.054;8.518;2023-04-03T11:38:53;3.17;;;0.80;;
65715;SDS011;63484;52.054;8.518;2023-04-03T11:44:00;4.78;;;0.70;;
65715;SDS011;63484;52.054;8.518;2023-04-03T11:49:04;1.77;;;0.60;;
65715;SDS011;63484;52.054;8.518;2023-04-03T11:59:48;3.33;;;1.00;;
65715;SDS011;63484;52.054;8.518;2023-04-03T12:21:00;2.33;;;0.60;;
65715;SDS011;63484;52.054;8.518;2023-04-03T12:26:04;1.63;;;0.80;;
65715;SDS011;63484;52.054;8.518;2023-04-03T12:31:23;2.03;;;0.63;;
65715;SDS011;63484;52.054;8.518;2023-04-03T12:36:41;2.65;;;0.82;;
65715;SDS011;63484;52.054;8.518;2023-04-03T12:41:55;2.97;;;0.60;;
65715;SDS011;63484;52.054;8.518;2023-04-03T12:47:14;3.67;;;0.82;;
65715;SDS011;63484;52.054;8.518;2023-04-03T12:52:26;3.10;;;0.70;;
65715;SDS011;63484;52.054;8.518;2023-04-03T12:57:33;1.48;;;0.50;;
65715;SDS011;63484;52.054;8.518;2023-04-03T13:02:36;2.28;;;0.90;;
65715;SDS011;63484;52.054;8.518;2023-04-03T13:07:38;0.63;;;0.47;;
65715;SDS011;63484;52.054;8.518;2023-04-03T13:12:48;2.72;;;0.80;;
65715;SDS011;63484;52.054;8.518;2023-04-03T13:17:52;2.17;;;0.73;;
65715;SDS011;63484;52.054;8.518;2023-04-03T13:22:56;4.22;;;0.80;;
65715;SDS011;63484;52.054;8.518;2023-04-03T13:28:00;2.20;;;0.90;;
65715;SDS011;63484;52.054;8.518;2023-04-03T13:33:17;1.33;;;0.65;;
65715;SDS011;63484;52.054;8.518;2023-04-03T13:38:23;2.50;;;0.65;;
65715;SDS011;63484;52.054;8.518;2023-04-03T13:43:27;2.70;;;0.63;;
65715;SDS011;63484;52.054;8.518;2023-04-03T13:48:36;3.08;;;0.70;;
65715;SDS011;63484;52.054;8.518;2023-04-03T13:53:43;3.28;;;1.10;;
65715;SDS011;63484;52.054;8.518;2023-04-03T13:58:59;4.05;;;1.10;;
65715;SDS011;63484;52.054;8.518;2023-04-03T14:04:12;3.08;;;0.77;;
65715;SDS011;63484;52.054;8.518;2023-04-03T14:09:17;1.27;;;0.70;;
65715;SDS011;63484;52.054;8.518;2023-04-03T14:14:23;2.92;;;0.75;;
65715;SDS011;63484;52.054;8.518;2023-04-03T14:19:30;4.90;;;0.80;;
65715;SDS011;63484;52.054;8.518;2023-04-03T14:24:36;1.00;;;0.50;;
65715;SDS011;63484;52.054;8.518;2023-04-03T14:29:38;2.28;;;0.70;;
65715;SDS011;63484;52.054;8.518;2023-04-03T14:39:46;2.03;;;0.70;;
65715;SDS011;63484;52.054;8.518;2023-04-03T14:44:48;3.80;;;0.93;;
65715;SDS011;63484;52.054;8.518;2023-04-03T14:49:52;1.65;;;0.85;;
65715;SDS011;63484;52.054;8.518;2023-04-03T14:54:54;3.33;;;0.60;;
65715;SDS011;63484;52.054;8.518;2023-04-03T14:59:58;3.72;;;0.85;;
65715;SDS011;63484;52.054;8.518;2023-04-03T15:05:03;3.03;;;0.88;;
65715;SDS011;63484;52.054;8.518;2023-04-03T15:10:14;3.70;;;0.55;;
65715;SDS011;63484;52.054;8.518;2023-04-03T15:15:19;2.30;;;0.60;;
65715;SDS011;63484;52.054;8.518;2023-04-03T15:20:24;2.83;;;0.82;;
65715;SDS011;63484;52.054;8.518;2023-04-03T15:25:28;3.63;;;1.00;;
65715;SDS011;63484;52.054;8.518;2023-04-03T15:30:29;2.22;;;0.60;;
65715;SDS011;63484;52.054;8.518;2023-04-03T15:35:32;3.90;;;0.70;;
65715;SDS011;63484;52.054;8.518;2023-04-03T15:40:34;2.05;;;0.77;;
65715;SDS011;63484;52.054;8.518;2023-04-03T15:45:36;2.45;;;0.80;;
65715;SDS011;63484;52.054;8.518;2023-04-03T15:50:42;2.53;;;0.90;;
65715;SDS011;63484;52.054;8.518;2023-04-03T15:55:44;3.03;;;0.73;;
65715;SDS011;63484;52.054;8.518;2023-04-03T16:00:45;5.88;;;0.95;;
65715;SDS011;63484;52.054;8.518;2023-04-03T16:05:48;2.70;;;0.80;;
65715;SDS011;63484;52.054;8.518;2023-04-03T16:10:50;3.42;;;0.60;;
65715;SDS011;63484;52.054;8.518;2023-04-03T16:15:52;3.60;;;0.90;;
65715;SDS011;63484;52.054;8.518;2023-04-03T16:20:59;3.28;;;1.10;;
65715;SDS011;63484;52.054;8.518;2023-04-03T16:26:02;1.33;;;0.60;;
65715;SDS011;63484;52.054;8.518;2023-04-03T16:31:04;3.03;;;0.57;;
65715;SDS011;63484;52.054;8.518;2023-04-03T16:36:08;1.80;;;0.77;;
65715;SDS011;63484;52.054;8.518;2023-04-03T16:41:10;3.63;;;1.00;;
65715;SDS011;63484;52.054;8.518;2023-04-03T16:46:12;2.03;;;0.60;;
65715;SDS011;63484;52.054;8.518;2023-04-03T16:51:15;2.58;;;0.88;;
65715;SDS011;63484;52.054;8.518;2023-04-03T16:56:16;2.50;;;0.60;;
65715;SDS011;63484;52.054;8.518;2023-04-03T17:01:18;2.03;;;0.80;;
65715;SDS011;63484;52.054;8.518;2023-04-03T17:06:23;0.85;;;0.70;;
65715;SDS011;63484;52.054;8.518;2023-04-03T17:11:24;2.23;;;0.50;;
65715;SDS011;63484;52.054;8.518;2023-04-03T17:16:27;2.97;;;0.88;;
65715;SDS011;63484;52.054;8.518;2023-04-03T17:21:33;6.88;;;1.30;;
65715;SDS011;63484;52.054;8.518;2023-04-03T17:26:34;3.25;;;0.95;;
65715;SDS011;63484;52.054;8.518;2023-04-03T17:31:37;9.35;;;0.98;;
65715;SDS011;63484;52.054;8.518;2023-04-03T17:36:40;2.33;;;0.85;;
65715;SDS011;63484;52.054;8.518;2023-04-03T17:41:42;4.80;;;0.70;;
65715;SDS011;63484;52.054;8.518;2023-04-03T17:46:44;3.90;;;1.10;;
65715;SDS011;63484;52.054;8.518;2023-04-03T17:51:48;4.28;;;1.05;;
65715;SDS011;63484;52.054;8.518;2023-04-03T17:56:49;2.40;;;0.93;;
65715;SDS011;63484;52.054;8.518;2023-04-03T18:01:51;4.35;;;1.05;;
65715;SDS011;63484;52.054;8.518;2023-04-03T18:06:54;3.30;;;1.10;;
65715;SDS011;63484;52.054;8.518;2023-04-03T18:11:56;5.30;;;1.83;;
65715;SDS011;63484;52.054;8.518;2023-04-03T18:16:58;8.75;;;1.55;;
65715;SDS011;63484;52.054;8.518;2023-04-03T18:22:02;3.45;;;1.30;;
65715;SDS011;63484;52.054;8.518;2023-04-03T18:27:08;2.35;;;1.05;;
65715;SDS011;63484;52.054;8.518;2023-04-03T18:32:13;3.67;;;1.40;;
65715;SDS011;63484;52.054;8.518;2023-04-03T18:37:19;4.47;;;1.30;;
65715;SDS011;63484;52.054;8.518;2023-04-03T18:42:24;3.72;;;1.52;;
65715;SDS011;63484;52.054;8.518;2023-04-03T18:47:27;4.20;;;1.70;;
65715;SDS011;63484;52.054;8.518;2023-04-03T18:52:31;3.40;;;1.40;;
65715;SDS011;63484;52.054;8.518;2023-04-03T18:57:33;5.10;;;1.97;;
65715;SDS011;63484;52.054;8.518;2023-04-03T19:02:34;7.03;;;1.85;;
65715;SDS011;63484;52.054;8.518;2023-04-03T19:07:37;6.13;;;1.95;;
65715;SDS011;63484;52.054;8.518;2023-04-03T19:12:41;6.38;;;2.42;;
65715;SDS011;63484;52.054;8.518;2023-04-03T19:17:43;9.68;;;3.15;;
65715;SDS011;63484;52.054;8.518;2023-04-03T19:22:46;7.45;;;3.25;;
65715;SDS011;63484;52.054;8.518;2023-04-03T19:27:48;7.03;;;2.00;;
65715;SDS011;63484;52.054;8.518;2023-04-03T19:32:50;3.90;;;1.83;;
65715;SDS011;63484;52.054;8.518;2023-04-03T19:37:53;5.88;;;1.90;;
65715;SDS011;63484;52.054;8.518;2023-04-03T19:42:55;7.60;;;1.80;;
65715;SDS011;63484;52.054;8.518;2023-04-03T19:47:57;5.88;;;1.90;;
65715;SDS011;63484;52.054;8.518;2023-04-03T19:53:01;3.43;;;1.50;;
65715;SDS011;63484;52.054;8.518;2023-04-03T19:58:03;3.85;;;1.08;;
65715;SDS011;63484;52.054;8.518;2023-04-03T20:03:06;8.20;;;1.40;;
65715;SDS011;63484;52.054;8.518;2023-04-03T20:08:11;1.88;;;1.00;;
65715;SDS011;63484;52.054;8.518;2023-04-03T20:13:13;4.38;;;1.08;;
65715;SDS011;63484;52.054;8.518;2023-04-03T20:18:16;5.38;;;1.20;;
65715;SDS011;63484;52.054;8.518;2023-04-03T20:23:20;3.15;;;1.60;;
65715;SDS011;63484;52.054;8.518;2023-04-03T20:28:23;4.05;;;2.00;;
65715;SDS011;63484;52.054;8.518;2023-04-03T20:33:25;5.38;;;1.70;;
65715;SDS011;63484;52.054;8.518;2023-04-03T20:38:28;10.07;;;2.47;;
65715;SDS011;63484;52.054;8.518;2023-04-03T20:43:30;6.23;;;2.27;;
65715;SDS011;63484;52.054;8.518;2023-04-03T20:48:32;14.70;;;3.97;;
65715;SDS011;63484;52.054;8.518;2023-04-03T20:53:36;11.50;;;3.67;;
65715;SDS011;63484;52.054;8.518;2023-04-03T20:58:37;14.17;;;5.03;;
65715;SDS011;63484;52.054;8.518;2023-04-03T21:03:39;13.40;;;4.40;;
65715;SDS011;63484;52.054;8.518;2023-04-03T21:20:01;9.00;;;4.30;;
65715;SDS011;63484;52.054;8.518;2023-04-03T21:25:05;10.47;;;3.50;;
65715;SDS011;63484;52.054;8.518;2023-04-03T21:30:11;10.67;;;3.10;;
65715;SDS011;63484;52.054;8.518;2023-04-03T21:35:15;10.30;;;3.40;;
65715;SDS011;63484;52.054;8.518;2023-04-03T21:40:17;6.50;;;2.92;;
65715;SDS011;63484;52.054;8.518;2023-04-03T21:45:21;6.30;;;2.77;;
65715;SDS011;63484;52.054;8.518;2023-04-03T21:50:24;5.60;;;2.63;;
65715;SDS011;63484;52.054;8.518;2023-04-03T21:55:26;6.72;;;2.25;;
65715;SDS011;63484;52.054;8.518;2023-04-03T22:00:29;8.27;;;2.87;;
65715;SDS011;63484;52.054;8.518;2023-04-03T22:05:34;9.17;;;3.03;;
65715;SDS011;63484;52.054;8.518;2023-04-03T22:10:36;5.97;;;2.42;;
65715;SDS011;63484;52.054;8.518;2023-04-03T22:15:39;6.90;;;2.40;;
65715;SDS011;63484;52.054;8.518;2023-04-03T22:20:44;15.65;;;4.88;;
65715;SDS011;63484;52.054;8.518;2023-04-03T22:25:55;7.17;;;2.83;;
65715;SDS011;63484;52.054;8.518;2023-04-03T22:31:00;4.77;;;2.60;;
65715;SDS011;63484;52.054;8.518;2023-04-03T22:36:05;7.53;;;2.63;;
65715;SDS011;63484;52.054;8.518;2023-04-03T22:41:08;5.90;;;2.53;;
65715;SDS011;63484;52.054;8.518;2023-04-03T22:46:12;6.67;;;2.40;;
65715;SDS011;63484;52.054;8.518;2023-04-03T22:51:15;6.70;;;2.13;;
65715;SDS011;63484;52.054;8.518;2023-04-03T22:56:17;6.13;;;2.80;;
65715;SDS011;63484;52.054;8.518;2023-04-03T23:01:23;7.97;;;2.50;;
65715;SDS011;63484;52.054;8.518;2023-04-03T23:06:26;5.37;;;2.17;;
65715;SDS011;63484;52.054;8.518;2023-04-03T23:11:28;7.35;;;2.88;;
65715;SDS011;63484;52.054;8.518;2023-04-03T23:16:32;7.30;;;2.43;;
65715;SDS011;63484;52.054;8.518;2023-04-03T23:21:35;7.00;;;2.37;;
65715;SDS011;63484;52.054;8.518;2023-04-03T23:26:36;5.85;;;2.63;;
65715;SDS011;63484;52.054;8.518;2023-04-03T23:31:38;4.83;;;2.40;;
65715;SDS011;63484;52.054;8.518;2023-04-03T23:36:41;8.30;;;2.80;;
65715;SDS011;63484;52.054;8.518;2023-04-03T23:41:43;8.13;;;3.45;;
65715;SDS011;63484;52.054;8.518;2023-04-03T23:51:49;10.77;;;3.53;;
65715;SDS011;63484;52.054;8.518;2023-04-03T23:56:53;15.00;;;4.23;;
